Latest Weather Observations for Mount Boyce

IDN60801

Issued at 9:02 pm EDT Friday 27 March 2015 (issued every 30 minutes, with the page automatically refreshed every 10 minutes)

About weather observations | Map of weather stations | Latest weather observations for NSW | Other Formats
Station Details ID: 063292 Name: MOUNT BOYCE AWS Lat: -33.62 Lon: 150.27 Height: 1080.0 m
Data from the previous 72 hours. | See also: Recent months at Mount Boyce
Date/Time
EDT
Temp
°C
App
Temp
°C
Dew
Point
Rel
Hum
%
Delta-T
°C
Wind Press
QNH
hPa
Press
MSL
hPa
Rain
since 9 am
mm
Dir
 
Spd
km/h
Gust
km/h
Spd
kts
Gust
kts
27/09:00pm 10.9 5.5 2.5 56 3.9 WSW 20 28 11 15 - - 0.0
27/08:30pm 11.1 4.9 2.4 55 4.0 WSW 24 37 13 20 - - 0.2
27/08:00pm 11.6 5.4 2.4 53 4.2 WSW 24 35 13 19 - - 0.2
27/07:30pm 12.1 6.2 2.0 50 4.6 WSW 22 37 12 20 - - 0.2
27/07:00pm 13.0 6.7 1.4 45 5.3 WSW 24 35 13 19 - - 0.2
27/06:30pm 14.6 8.7 1.8 42 6.0 WSW 22 37 12 20 - - 0.2
27/06:00pm 15.1 7.4 0.2 36 6.7 WSW 30 44 16 24 - - 0.2
27/05:33pm 15.9 8.7 0.9 36 6.9 WSW 28 46 15 25 - - 0.2
27/05:30pm 16.1 9.3 1.0 36 7.0 WSW 26 44 14 24 - - 0.2
27/05:19pm 16.0 8.8 0.6 35 7.1 WSW 28 46 15 25 - - 0.2
27/05:00pm 16.4 9.0 1.7 37 6.9 WSW 30 44 16 24 - - 0.2
27/04:34pm 16.4 9.1 0.1 33 7.4 WSW 28 46 15 25 - - 0.2
27/04:30pm 16.3 8.7 0.4 34 7.3 WSW 30 46 16 25 - - 0.2
27/04:04pm 16.3 9.1 0.4 34 7.3 W 28 46 15 25 - - 0.2
27/04:00pm 16.7 9.6 1.2 35 7.3 W 28 39 15 21 - - 0.2
27/03:33pm 16.8 9.3 1.3 35 7.3 WSW 30 48 16 26 - - 0.2
27/03:30pm 16.9 9.1 1.8 36 7.2 WSW 32 48 17 26 - - 0.2
27/03:00pm 16.6 9.3 0.3 33 7.5 WSW 28 46 15 25 - - 0.2
27/02:32pm 15.9 8.6 -0.3 33 7.3 W 28 46 15 25 - - 0.2
27/02:30pm 16.0 8.3 0.2 34 7.2 W 30 46 16 25 - - 0.2
27/02:00pm 15.8 7.7 -0.4 33 7.3 WSW 32 46 17 25 - - 0.2
27/01:30pm 15.7 8.4 0.3 35 7.0 WSW 28 41 15 22 - - 0.2
27/01:00pm 14.3 6.1 -0.9 35 6.7 W 32 48 17 26 - - 0.2
27/12:30pm 13.5 4.4 -0.5 38 6.2 WSW 37 61 20 33 - - 0.2
27/12:19pm 13.8 5.9 1.1 42 5.8 W 32 50 17 27 - - 0.2
27/12:00pm 13.3 5.4 1.0 43 5.6 W 32 48 17 26 - - 0.2
27/11:30am 12.3 5.1 0.7 45 5.2 W 28 50 15 27 - - 0.0
27/11:29am 12.3 5.9 0.7 45 5.2 W 24 50 13 27 - - 0.0
27/11:23am 12.1 5.0 1.1 47 4.9 W 28 41 15 22 - - -
27/11:00am 11.1 9.3 1.1 50 4.5 CALM 0 0 0 0 - - 0.0
27/10:30am 10.3 8.6 1.7 55 3.9 CALM 0 0 0 0 - - 0.0
27/10:00am 9.2 7.5 1.9 60 3.3 CALM 0 0 0 0 - - 0.0
27/09:30am 7.7 5.9 0.9 62 2.9 CALM 0 0 0 0 - - 0.0
27/09:00am 6.4 4.5 0.3 65 2.6 CALM 0 0 0 0 - - 0.2
27/08:30am 5.7 3.6 -0.6 64 2.6 CALM 0 0 0 0 - - 0.2
27/08:00am 5.4 3.3 -0.8 64 2.5 CALM 0 0 0 0 - - 0.2
27/07:30am 5.3 3.1 -1.2 63 2.6 CALM 0 0 0 0 - - 0.2
27/07:00am 5.3 3.1 -1.2 63 2.6 CALM 0 0 0 0 - - 0.2
27/06:30am 5.2 3.0 -1.3 63 2.6 CALM 0 0 0 0 - - 0.2
27/06:00am 5.1 2.9 -1.3 63 2.5 CALM 0 0 0 0 - - 0.2
27/05:30am 5.2 3.0 -1.5 62 2.6 CALM 0 0 0 0 - - 0.2
27/05:00am 5.3 3.1 -1.6 61 2.7 CALM 0 0 0 0 - - 0.2
27/04:30am 5.4 3.1 -2.0 59 2.9 CALM 0 0 0 0 - - 0.2
27/04:00am 5.3 3.1 -1.8 60 2.8 CALM 0 0 0 0 - - 0.2
27/03:30am 5.7 3.5 -1.9 58 3.0 CALM 0 0 0 0 - - 0.2
27/03:00am 5.8 3.5 -2.3 56 3.2 CALM 0 0 0 0 - - 0.2
27/02:30am 6.1 3.8 -2.2 55 3.3 CALM 0 0 0 0 - - 0.2
27/02:00am 6.4 4.1 -2.5 53 3.5 CALM 0 0 0 0 - - 0.2
27/01:30am 6.7 4.4 -2.4 52 3.6 CALM 0 0 0 0 - - 0.2
27/01:00am 7.2 4.9 -2.5 50 3.8 CALM 0 0 0 0 - - 0.2
27/12:30am 7.4 5.1 -2.1 51 3.8 CALM 0 0 0 0 - - 0.2
27/12:00am 7.7 5.4 -2.0 50 3.9 CALM 0 0 0 0 - - 0.2
 
Date/Time
EDT
Temp
°C
App
Temp
°C
Dew
Point
Rel
Hum
%
Delta-T
°C
Wind Press
QNH
hPa
Press
MSL
hPa
Rain
since 9 am
mm
Dir
 
Spd
km/h
Gust
km/h
Spd
kts
Gust
kts
26/11:30pm 8.3 6.0 -2.3 47 4.2 CALM 0 0 0 0 - - 0.2
26/11:00pm 8.8 6.5 -2.2 46 4.4 CALM 0 0 0 0 - - 0.2
26/10:30pm 9.5 7.3 -1.8 45 4.6 CALM 0 0 0 0 - - 0.2
26/10:00pm 9.8 7.8 0.2 51 4.1 CALM 0 0 0 0 - - 0.2
26/09:30pm 10.5 8.9 2.4 57 3.7 CALM 0 0 0 0 - - 0.2
26/09:00pm 10.9 9.4 3.0 58 3.7 CALM 0 0 0 0 - - 0.2
26/08:30pm 11.6 10.1 3.1 56 4.0 CALM 0 0 0 0 - - 0.2
26/08:00pm 12.1 10.6 2.8 53 4.3 CALM 0 0 0 0 - - 0.2
26/07:30pm 12.9 11.3 2.2 48 5.0 CALM 0 0 0 0 - - 0.2
26/07:00pm 13.7 12.0 1.7 44 5.5 CALM 0 0 0 0 - - 0.2
26/06:30pm 14.9 13.3 2.4 43 5.9 CALM 0 0 0 0 - - 0.2
26/06:00pm 15.4 13.6 1.5 39 6.5 CALM 0 0 0 0 - - 0.2
26/05:30pm 16.2 14.6 2.2 39 6.7 CALM 0 0 0 0 - - 0.2
26/05:00pm 16.0 14.4 2.4 40 6.5 CALM 0 0 0 0 - - 0.2
26/04:30pm 16.0 14.3 1.7 38 6.7 CALM 0 0 0 0 - - 0.2
26/04:00pm 16.1 14.2 0.7 35 7.1 CALM 0 0 0 0 - - 0.2
26/03:30pm 16.3 14.3 0.0 33 7.4 CALM 0 0 0 0 - - 0.2
26/03:00pm 16.9 15.2 2.1 37 7.1 CALM 0 0 0 0 - - 0.2
26/02:30pm 16.7 15.1 2.3 38 6.9 CALM 0 0 0 0 - - 0.0
26/02:00pm 16.1 14.3 1.4 37 6.9 CALM 0 0 0 0 - - 0.0
26/01:30pm 15.9 14.5 3.7 44 6.0 CALM 0 0 0 0 - - 0.0
26/01:00pm 15.1 13.8 4.2 48 5.4 CALM 0 0 0 0 - - 0.0
26/12:30pm 14.6 13.3 4.0 49 5.2 CALM 0 0 0 0 - - 0.0
26/12:00pm 14.8 13.8 5.6 54 4.6 CALM 0 0 0 0 - - 0.0
26/11:30am 13.6 12.4 4.5 54 4.5 CALM 0 0 0 0 - - 0.0
26/11:00am 13.0 11.9 5.2 59 3.9 CALM 0 0 0 0 - - 0.0
26/10:30am 12.3 11.4 5.9 65 3.2 CALM 0 0 0 0 - - 0.0
26/10:00am 11.2 10.4 6.5 73 2.4 CALM 0 0 0 0 - - 0.0
26/09:30am 10.4 9.5 6.0 74 2.2 CALM 0 0 0 0 - - 0.0
26/09:00am 9.5 8.7 6.6 82 1.4 CALM 0 0 0 0 - - -
26/08:30am 8.7 8.1 7.5 92 0.6 CALM 0 0 0 0 - - -
26/08:18am 8.7 8.3 8.1 96 0.3 CALM 0 0 0 0 - - -
26/08:08am 8.8 8.4 8.4 97 0.2 CALM 0 0 0 0 - - -
26/08:00am 8.9 8.6 8.5 97 0.2 CALM 0 0 0 0 - - -
26/07:44am 9.5 9.3 9.0 97 0.3 CALM 0 0 0 0 - - -
26/07:30am 9.2 8.9 8.6 96 0.3 CALM 0 0 0 0 - - -
26/07:26am 9.1 8.8 8.5 96 0.3 CALM 0 0 0 0 - - -
26/07:02am 9.3 9.0 8.8 97 0.3 CALM 0 0 0 0 - - -
26/07:00am 9.4 9.2 8.9 97 0.3 CALM 0 0 0 0 - - -
26/06:30am 9.4 9.2 8.9 97 0.3 CALM 0 0 0 0 - - -
26/06:00am 9.9 9.8 9.4 97 0.3 CALM 0 0 0 0 - - -
26/05:30am 9.9 9.8 9.3 96 0.3 CALM 0 0 0 0 - - -
26/05:00am 10.0 9.8 9.2 95 0.4 CALM 0 0 0 0 - - -
26/04:44am 10.2 10.0 9.1 93 0.6 CALM 0 0 0 0 - - -
26/04:30am 10.4 10.3 9.3 93 0.6 CALM 0 0 0 0 - - -
26/04:04am 10.8 10.8 9.7 93 0.6 CALM 0 0 0 0 - - -
26/04:00am 10.9 10.9 9.8 93 0.6 CALM 0 0 0 0 - - -
26/03:36am 10.9 10.9 9.8 93 0.6 CALM 0 0 0 0 - - -
26/03:30am 11.0 11.0 9.9 93 0.6 CALM 0 0 0 0 - - -
26/03:02am 11.3 11.5 10.4 94 0.5 CALM 0 0 0 0 - - -
26/03:00am 11.3 11.5 10.4 94 0.5 CALM 0 0 0 0 - - -
26/02:30am 11.4 11.6 10.5 94 0.5 CALM 0 0 0 0 - - -
26/02:08am 11.3 11.5 10.5 95 0.4 CALM 0 0 0 0 - - -
26/02:00am 11.3 11.5 10.7 96 0.3 CALM 0 0 0 0 - - -
26/01:30am 11.2 11.4 10.6 96 0.3 CALM 0 0 0 0 - - -
26/01:22am 11.3 11.5 10.7 96 0.3 CALM 0 0 0 0 - - -
26/01:03am 11.2 11.4 10.6 96 0.3 CALM 0 0 0 0 - - -
26/01:00am 11.2 - 10.6 96 0.3 - - - - - - - -
26/12:00am 11.6 11.9 11.0 96 0.3 CALM 0 0 0 0 - - 0.0
 
Date/Time
EDT
Temp
°C
App
Temp
°C
Dew
Point
Rel
Hum
%
Delta-T
°C
Wind Press
QNH
hPa
Press
MSL
hPa
Rain
since 9 am
mm
Dir
 
Spd
km/h
Gust
km/h
Spd
kts
Gust
kts
25/11:30pm 11.8 12.2 11.2 96 0.3 CALM 0 0 0 0 - - 0.0
25/11:00pm 11.9 12.3 11.1 95 0.4 CALM 0 0 0 0 - - 0.0
25/10:51pm 11.9 12.3 11.1 95 0.4 CALM 0 0 0 0 - - 0.0
25/10:50pm 11.9 12.3 11.1 95 0.4 CALM 0 0 0 0 - - 0.0
25/10:30pm 11.9 12.3 11.1 95 0.4 CALM 0 0 0 0 - - 0.0
25/10:00pm 11.9 12.3 11.1 95 0.4 CALM 0 0 0 0 - - 0.0
25/09:56pm 11.9 12.3 11.1 95 0.4 CALM 0 0 0 0 - - 0.0
25/09:38pm 11.9 12.3 11.1 95 0.4 CALM 0 0 0 0 - - 0.0
25/09:30pm 11.8 12.1 11.0 95 0.4 CALM 0 0 0 0 - - 0.0
25/09:22pm 11.9 12.3 11.1 95 0.4 CALM 0 0 0 0 - - 0.0
25/09:00pm 11.9 12.3 11.1 95 0.4 CALM 0 0 0 0 - - 0.0
25/08:30pm 12.0 12.4 11.2 95 0.4 CALM 0 0 0 0 - - 0.0
25/08:00pm 11.8 12.0 10.7 93 0.6 CALM 0 0 0 0 - - 0.0
25/07:42pm 12.0 12.2 10.7 92 0.7 CALM 0 0 0 0 - - 0.0
25/07:30pm 12.1 12.3 10.7 91 0.8 CALM 0 0 0 0 - - 0.0
25/07:00pm 12.9 12.9 9.7 81 1.7 CALM 0 0 0 0 - - 0.0
25/06:30pm 14.4 14.3 9.4 72 2.7 CALM 0 0 0 0 - - 0.0
25/06:00pm 15.7 15.8 10.0 69 3.2 CALM 0 0 0 0 - - 0.0
25/05:30pm 16.3 16.2 9.5 64 3.7 CALM 0 0 0 0 - - 0.0
25/05:00pm 17.1 17.2 10.2 64 3.9 CALM 0 0 0 0 - - 0.0
25/04:30pm 17.7 17.8 10.1 61 4.3 CALM 0 0 0 0 - - 0.0
25/04:00pm 18.0 18.0 9.9 59 4.5 CALM 0 0 0 0 - - 0.0
25/03:30pm 17.7 17.8 10.3 62 4.2 CALM 0 0 0 0 - - 0.0
25/03:00pm 16.9 16.9 9.8 63 3.9 CALM 0 0 0 0 - - 0.0
25/02:30pm 16.4 16.1 8.6 60 4.2 CALM 0 0 0 0 - - 0.0
25/02:00pm 15.2 14.9 8.7 65 3.5 CALM 0 0 0 0 - - 0.0
25/01:30pm 16.9 17.0 10.3 65 3.7 CALM 0 0 0 0 - - 0.0
25/01:00pm 15.1 14.9 9.2 68 3.2 CALM 0 0 0 0 - - 0.0
25/12:30pm 16.5 16.3 9.2 62 4.0 CALM 0 0 0 0 - - 0.0
25/12:00pm 16.0 16.1 10.1 68 3.3 CALM 0 0 0 0 - - 0.0
25/11:42am 15.0 14.7 8.5 65 3.5 CALM 0 0 0 0 - - 0.0
25/11:30am 15.4 15.5 10.2 71 2.9 CALM 0 0 0 0 - - 0.0
25/11:29am 15.5 15.7 10.5 72 2.8 CALM 0 0 0 0 - - 0.0
25/11:15am 13.5 13.4 9.6 77 2.1 CALM 0 0 0 0 - - 0.0
25/11:05am 13.4 13.3 9.3 76 2.2 CALM 0 0 0 0 - - 0.0
25/11:00am 13.5 13.3 9.2 75 2.3 CALM 0 0 0 0 - - 0.0
25/10:30am 13.4 13.4 9.8 79 2.0 CALM 0 0 0 0 - - 0.0
25/10:26am 13.5 13.4 9.4 76 2.2 CALM 0 0 0 0 - - 0.0
25/10:00am 12.4 12.5 10.3 87 1.1 CALM 0 0 0 0 - - 0.0
25/09:55am 11.6 11.4 9.2 85 1.3 CALM 0 0 0 0 - - 0.0
25/09:34am 11.1 10.9 9.2 88 1.0 CALM 0 0 0 0 - - 0.0
25/09:30am 11.0 10.8 9.1 88 1.0 CALM 0 0 0 0 - - 0.0
25/09:00am 10.2 10.0 9.1 93 0.6 CALM 0 0 0 0 - - 14.0
25/08:30am 9.5 9.2 8.7 95 0.4 CALM 0 0 0 0 - - 14.0
25/08:16am 8.9 8.5 8.3 96 0.3 CALM 0 0 0 0 - - 14.0
25/08:00am 8.4 7.8 7.6 95 0.4 CALM 0 0 0 0 - - 14.0
25/07:30am 8.3 7.7 7.5 95 0.4 CALM 0 0 0 0 - - 14.0
25/07:00am 7.8 7.0 6.7 93 0.5 CALM 0 0 0 0 - - 14.0
25/06:30am 8.3 7.6 6.8 90 0.7 CALM 0 0 0 0 - - 14.0
25/06:00am 7.9 7.1 6.5 91 0.7 CALM 0 0 0 0 - - 14.0
25/05:30am 7.9 7.1 6.4 90 0.7 CALM 0 0 0 0 - - 14.0
25/05:00am 8.1 7.3 6.4 89 0.8 CALM 0 0 0 0 - - 14.0
25/04:30am 8.6 7.8 6.7 88 0.9 CALM 0 0 0 0 - - 14.0
25/04:00am 8.3 7.6 6.8 90 0.7 CALM 0 0 0 0 - - 14.0
25/03:30am 8.0 7.2 6.6 91 0.7 CALM 0 0 0 0 - - 14.0
25/03:00am 8.1 7.3 6.7 91 0.7 CALM 0 0 0 0 - - 14.0
25/02:30am 8.4 7.6 6.7 89 0.8 CALM 0 0 0 0 - - 14.0
25/02:00am 8.6 7.8 6.4 86 1.1 CALM 0 0 0 0 - - 14.0
25/01:30am 8.9 8.1 6.7 86 1.1 CALM 0 0 0 0 - - 14.0
25/01:00am 9.0 8.3 6.8 86 1.1 CALM 0 0 0 0 - - 14.0
25/12:30am 9.0 8.3 6.8 86 1.1 CALM 0 0 0 0 - - 14.0
25/12:00am 9.3 8.6 7.1 86 1.1 CALM 0 0 0 0 - - 14.0
 
Date/Time
EDT
Temp
°C
App
Temp
°C
Dew
Point
Rel
Hum
%
Delta-T
°C
Wind Press
QNH
hPa
Press
MSL
hPa
Rain
since 9 am
mm
Dir
 
Spd
km/h
Gust
km/h
Spd
kts
Gust
kts
24/11:30pm 10.2 9.6 7.3 82 1.5 CALM 0 0 0 0 - - 14.0
24/11:00pm 11.2 10.9 8.6 84 1.4 CALM 0 0 0 0 - - 14.0
24/10:30pm 12.2 12.4 10.6 90 0.9 CALM 0 0 0 0 - - 14.0
24/10:00pm 13.0 13.6 11.9 93 0.6 CALM 0 0 0 0 - - 14.0
24/09:30pm 13.1 13.8 12.2 94 0.5 CALM 0 0 0 0 - - 14.0

Other Formats:

Comma delimited format used in spreadsheet applications
http://www.bom.gov.au/fwo/IDN60801/IDN60801.94743.axf

JavaScript Object Notation format (JSON) in row-major order
http://www.bom.gov.au/fwo/IDN60801/IDN60801.94743.json